KG5SWO Weather Reports


Display with metric or nautical units.
time (UTC)temp
F
wind
direction
speed
MPH
gust
MPH
rain 1hr
in
rain 24hr
in
rain mn
in
humidity
%
barometer
mb
20220816010302 97 290 1.0 2.0 0.00 0.00 0.00 14 1010.6
20220816005800 98 211 3.0 3.0 0.00 0.00 0.00 14 1010.8
20220816005259 99 238 1.0 2.0 0.00 0.00 0.00 14 1010.8
20220816004759 99 266 2.0 2.0 0.00 0.00 0.00 14 1010.6
20220816004258 98 167 2.0 2.0 0.00 0.00 0.00 14 1010.6
20220816003758 99 157 0.0 0.0 0.00 0.00 0.00 14 1010.7
20220816003258 98 200 2.0 2.0 0.00 0.00 0.00 14 1010.7
20220816002757 98 205 2.0 2.0 0.00 0.00 0.00 14 1010.5
20220816002255 99 229 4.0 5.0 0.00 0.00 0.00 14 1010.8
20220816001755 98 187 3.0 3.0 0.00 0.00 0.00 14 1010.8
20220816001253 98 203 1.0 2.0 0.00 0.00 0.00 15 1011.0
20220816000753 98 227 3.0 3.0 0.00 0.00 0.00 15 1010.7
20220816000252 98 157 2.0 3.0 0.00 0.00 0.00 14 1010.9
20220815235750 98 1 3.0 3.0 0.00 0.00 0.00 15 1010.7
20220815235249 100 270 4.0 5.0 0.00 0.00 0.00 15 1010.9
20220815234747 100 262 2.0 2.0 0.00 0.00 0.00 15 1010.8
20220815234246 101 120 4.0 6.0 0.00 0.00 0.00 14 1010.9
20220815233745 98 117 3.0 3.0 0.00 0.00 0.00 14 1010.8
20220815233244 100 170 3.0 3.0 0.00 0.00 0.00 14 1010.7
20220815232743 99 309 4.0 5.0 0.00 0.00 0.00 14 1011.0
20220815232242 100 321 3.0 5.0 0.00 0.00 0.00 14 1011.1
20220815231740 100 29 2.0 3.0 0.00 0.00 0.00 14 1010.9
20220815231239 99 206 3.0 3.0 0.00 0.00 0.00 14 1011.0
20220815230738 100 168 2.0 2.0 0.00 0.00 0.00 14 1010.9
20220815230237 100 246 4.0 5.0 0.00 0.00 0.00 15 1011.0
20220815225737 100 358 3.0 3.0 0.00 0.00 0.00 14 1011.3
20220815225236 99 200 2.0 2.0 0.00 0.00 0.00 14 1011.2
20220815224736 100 223 3.0 3.0 0.00 0.00 0.00 14 1011.2
20220815224235 100 187 1.0 2.0 0.00 0.00 0.00 13 1011.2
20220815223734 101 283 3.0 3.0 0.00 0.00 0.00 14 1011.3
20220815223234 99 212 2.0 3.0 0.00 0.00 0.00 14 1011.3
20220815222733 100 158 4.0 6.0 0.00 0.00 0.00 15 1011.5
20220815222232 99 294 3.0 3.0 0.00 0.00 0.00 15 1011.6
20220815221731 99 189 2.0 2.0 0.00 0.00 0.00 15 1011.6
20220815221231 99 337 3.0 3.0 0.00 0.00 0.00 16 1011.5
20220815220731 99 261 4.0 5.0 0.00 0.00 0.00 15 1011.4
20220815220230 98 183 3.0 3.0 0.00 0.00 0.00 15 1011.7
20220815215729 99 252 3.0 3.0 0.00 0.00 0.00 15 1011.6
20220815215227 100 251 1.0 1.0 0.00 0.00 0.00 14 1011.6
20220815214727 99 217 3.0 5.0 0.00 0.00 0.00 14 1011.8
20220815214226 100 211 1.0 2.0 0.00 0.00 0.00 15 1011.8
20220815213725 98 165 3.0 3.0 0.00 0.00 0.00 15 1011.8
20220815213224 98 31 1.0 1.0 0.00 0.00 0.00 15 1012.0
20220815212723 98 268 3.0 3.0 0.00 0.00 0.00 16 1011.8
20220815212223 98 277 1.0 2.0 0.00 0.00 0.00 15 1012.0
20220815211721 98 225 3.0 3.0 0.00 0.00 0.00 15 1012.1
20220815211219 99 275 5.0 6.0 0.00 0.00 0.00 15 1012.0
20220815210718 97 197 1.0 1.0 0.00 0.00 0.00 15 1012.2
20220815210218 98 253 3.0 3.0 0.00 0.00 0.00 15 1012.1
20220815205717 98 184 2.0 2.0 0.00 0.00 0.00 15 1011.8
20220815205218 97 206 4.0 5.0 0.00 0.00 0.00 15 1011.8
20220815204717 97 154 2.0 2.0 0.00 0.00 0.00 15 1012.3
20220815204217 100 247 3.0 3.0 0.00 0.00 0.00 15 1012.1
20220815203716 98 140 2.0 3.0 0.00 0.00 0.00 16 1012.3
20220815203216 98 229 2.0 3.0 0.00 0.00 0.00 16 1012.2
20220815202714 98 262 4.0 6.0 0.00 0.00 0.00 15 1012.4
20220815202214 98 163 2.0 2.0 0.00 0.00 0.00 16 1012.2
20220815201713 98 186 3.0 3.0 0.00 0.00 0.00 16 1012.3
20220815201211 97 319 3.0 5.0 0.00 0.00 0.00 16 1012.4
20220815200710 96 191 3.0 3.0 0.00 0.00 0.00 17 1012.2
20220815200210 96 345 3.0 3.0 0.00 0.00 0.00 17 1012.4
20220815195709 96 305 3.0 5.0 0.00 0.00 0.00 17 1012.1
20220815195209 97 196 4.0 5.0 0.00 0.00 0.00 17 1012.5
20220815194709 96 140 4.0 6.0 0.00 0.00 0.00 18 1012.6
20220815194208 96 202 2.0 2.0 0.00 0.00 0.00 19 1012.5
20220815193706 96 152 1.0 1.0 0.00 0.00 0.00 19 1012.4
20220815193206 96 215 3.0 5.0 0.00 0.00 0.00 20 1012.7
20220815192706 95 140 0.0 0.0 0.00 0.00 0.00 20 1012.7
20220815192204 95 245 3.0 3.0 0.00 0.00 0.00 21 1012.6
20220815191703 95 245 2.0 2.0 0.00 0.00 0.00 21 1012.7
20220815191203 95 273 2.0 2.0 0.00 0.00 0.00 21 1012.8
20220815190702 95 271 5.0 7.0 0.00 0.00 0.00 20 1012.7
20220815190201 94 221 3.0 3.0 0.00 0.00 0.00 22 1012.9
20220815185700 94 215 2.0 2.0 0.00 0.00 0.00 21 1012.8
20220815185159 93 160 4.0 6.0 0.00 0.00 0.00 22 1013.0
20220815184658 95 224 2.0 2.0 0.00 0.00 0.00 22 1013.2
20220815184157 94 230 3.0 3.0 0.00 0.00 0.00 23 1013.1
20220815183656 95 204 1.0 2.0 0.00 0.00 0.00 22 1013.1
20220815183155 93 246 2.0 3.0 0.00 0.00 0.00 23 1013.1
20220815182655 93 200 3.0 3.0 0.00 0.00 0.00 23 1013.0
20220815182154 93 117 2.0 3.0 0.00 0.00 0.00 23 1013.2
20220815181653 93 252 2.0 3.0 0.00 0.00 0.00 23 1012.9
20220815181153 93 224 4.0 5.0 0.00 0.00 0.00 22 1013.0
20220815180652 94 215 2.0 3.0 0.00 0.00 0.00 22 1013.0
20220815180151 93 166 2.0 2.0 0.00 0.00 0.00 21 1012.9
20220815175651 95 358 1.0 1.0 0.00 0.00 0.00 20 1013.0
20220815175151 94 81 1.0 1.0 0.00 0.00 0.00 19 1012.9
20220815174649 92 34 1.0 1.0 0.00 0.00 0.00 18 1012.8
20220815174149 93 76 2.0 2.0 0.00 0.00 0.00 17 1013.1
20220815173649 92 337 1.0 2.0 0.00 0.00 0.00 17 1013.2
20220815173147 92 43 1.0 2.0 0.00 0.00 0.00 17 1012.9
20220815172646 91 234 3.0 3.0 0.00 0.00 0.00 17 1013.1
20220815172145 92 89 2.0 2.0 0.00 0.00 0.00 17 1012.9
20220815171644 91 150 1.0 1.0 0.00 0.00 0.00 16 1013.1
20220815171143 90 349 3.0 3.0 0.00 0.00 0.00 17 1013.1
20220815170643 90 4 2.0 2.0 0.00 0.00 0.00 18 1013.1
20220815170141 91 347 1.0 1.0 0.00 0.00 0.00 17 1013.1
20220815165640 89 130 0.0 0.0 0.00 0.00 0.00 19 1013.1
20220815165139 89 160 1.0 1.0 0.00 0.00 0.00 19 1013.1
20220815164640 89 177 1.0 1.0 0.00 0.00 0.00 19 1013.0
20220815164139 88 0 2.0 3.0 0.00 0.00 0.00 20 1013.1
20220815163637 87 114 0.0 0.0 0.00 0.00 0.00 20 1013.1
20220815163136 87 157 1.0 1.0 0.00 0.00 0.00 21 1013.0
20220815162635 87 60 1.0 1.0 0.00 0.00 0.00 22 1012.8
20220815162134 86 121 0.0 0.0 0.00 0.00 0.00 23 1013.0
20220815161633 86 132 1.0 1.0 0.00 0.00 0.00 22 1013.2
20220815161132 84 135 0.0 1.0 0.00 0.00 0.00 23 1013.1
20220815160631 84 112 0.0 1.0 0.00 0.00 0.00 24 1013.0
20220815160130 82 107 0.0 1.0 0.00 0.00 0.00 25 1012.8
20220815155629 80 116 0.0 1.0 0.00 0.00 0.00 28 1013.0
20220815155128 79 155 0.0 0.0 0.00 0.00 0.00 33 1013.0
20220815154627 78 156 0.0 0.0 0.00 0.00 0.00 35 1013.0
20220815154126 77 162 1.0 1.0 0.00 0.00 0.00 36 1012.8
20220815153625 76 129 0.0 0.0 0.00 0.00 0.00 38 1013.2
20220815153124 75 151 0.0 0.0 0.00 0.00 0.00 40 1012.8
20220815152624 72 158 0.0 0.0 0.00 0.00 0.00 41 1012.9
20220815152123 71 159 0.0 0.0 0.00 0.00 0.00 40 1013.0
20220815151622 71 159 0.0 0.0 0.00 0.00 0.00 41 1013.0
20220815151122 70 159 0.0 0.0 0.00 0.00 0.00 41 1012.8
20220815150620 69 159 0.0 0.0 0.00 0.00 0.00 42 1012.9
20220815150120 69 159 0.0 0.0 0.00 0.00 0.00 42 1012.8
20220815145619 67 159 0.0 0.0 0.00 0.00 0.00 42 1012.7
20220815145118 65 159 0.0 0.0 0.00 0.00 0.00 45 1012.7
20220815144617 64 159 0.0 0.0 0.00 0.00 0.00 45 1012.9
20220815144116 63 159 0.0 0.0 0.00 0.00 0.00 47 1013.1
20220815143616 63 159 0.0 0.0 0.00 0.00 0.00 48 1013.2
20220815143115 62 159 1.0 1.0 0.00 0.00 0.00 48 1013.0
20220815142616 61 160 0.0 0.0 0.00 0.00 0.00 51 1013.1
20220815142115 59 162 0.0 1.0 0.00 0.00 0.00 53 1013.2
20220815141614 59 162 0.0 0.0 0.00 0.00 0.00 54 1013.0
20220815141114 59 162 0.0 1.0 0.00 0.00 0.00 55 1013.0
20220815140612 58 162 0.0 1.0 0.00 0.00 0.00 55 1013.0
20220815140112 58 162 0.0 0.0 0.00 0.00 0.00 55 1013.0
20220815135611 58 162 0.0 0.0 0.00 0.00 0.00 55 1013.1
20220815135111 58 162 1.0 1.0 0.00 0.00 0.00 55 1013.0
20220815134610 57 162 0.0 0.0 0.00 0.00 0.00 55 1012.8
20220815134109 57 166 0.0 1.0 0.00 0.00 0.00 56 1013.2
20220815133610 57 158 1.0 1.0 0.00 0.00 0.00 56 1013.1
20220815133109 57 153 0.0 0.0 0.00 0.00 0.00 55 1013.2
20220815132608 57 153 0.0 0.0 0.00 0.00 0.00 55 1012.9
20220815132108 57 153 1.0 1.0 0.00 0.00 0.00 55 1012.8
20220815131607 57 152 0.0 0.0 0.00 0.00 0.00 55 1012.8
20220815131107 57 154 0.0 0.0 0.00 0.00 0.00 55 1013.0
20220815130605 57 153 1.0 1.0 0.00 0.00 0.00 55 1012.8
20220815130104 57 153 0.0 0.0 0.00 0.00 0.00 55 1012.7
20220815125603 57 151 1.0 1.0 0.00 0.00 0.00 55 1012.8
20220815125102 57 149 0.0 0.0 0.00 0.00 0.00 57 1012.8
20220815124601 57 152 0.0 1.0 0.00 0.00 0.00 55 1012.7
20220815124101 58 151 0.0 0.0 0.00 0.00 0.00 56 1012.7
20220815123600 57 166 0.0 1.0 0.00 0.00 0.00 56 1012.8
20220815123100 57 167 1.0 1.0 0.00 0.00 0.00 56 1012.8
20220815122559 58 165 0.0 1.0 0.00 0.00 0.00 56 1012.9
20220815122058 58 164 0.0 0.0 0.00 0.00 0.00 56 1012.8
20220815121556 58 164 0.0 0.0 0.00 0.00 0.00 55 1012.8
20220815121055 58 165 0.0 0.0 0.00 0.00 0.00 56 1012.5
20220815120555 58 165 1.0 1.0 0.00 0.00 0.00 57 1012.8
20220815120054 58 165 0.0 1.0 0.00 0.00 0.00 57 1012.7
20220815115553 58 165 0.0 1.0 0.00 0.00 0.00 57 1012.9
20220815115053 58 165 0.0 0.0 0.00 0.00 0.00 56 1012.8
20220815114552 58 165 0.0 1.0 0.00 0.00 0.00 56 1012.9
20220815114051 58 165 0.0 0.0 0.00 0.00 0.00 57 1013.0
20220815113549 58 166 0.0 1.0 0.00 0.00 0.00 57 1013.0
20220815113048 58 166 1.0 1.0 0.00 0.00 0.00 57 1012.9
20220815112547 58 165 0.0 0.0 0.00 0.00 0.00 57 1012.9
20220815112046 58 166 1.0 1.0 0.00 0.00 0.00 57 1012.8
20220815111545 59 172 1.0 1.0 0.00 0.00 0.00 57 1012.9
20220815111045 59 141 0.0 0.0 0.00 0.00 0.00 56 1013.0
20220815110544 58 152 0.0 0.0 0.00 0.00 0.00 57 1013.0
20220815110043 59 152 1.0 1.0 0.00 0.00 0.00 57 1013.1
20220815105542 59 151 0.0 0.0 0.00 0.00 0.00 56 1013.1
20220815105042 59 152 0.0 0.0 0.00 0.00 0.00 57 1012.9
20220815104543 59 153 1.0 1.0 0.00 0.00 0.00 57 1013.0
20220815104041 59 151 0.0 0.0 0.00 0.00 0.00 56 1013.3
20220815103541 59 162 1.0 1.0 0.00 0.00 0.00 56 1013.0
20220815103040 59 157 1.0 2.0 0.00 0.00 0.00 56 1013.2
20220815102540 59 174 1.0 2.0 0.00 0.00 0.00 55 1013.0
20220815102038 59 170 1.0 1.0 0.00 0.00 0.00 57 1013.1
20220815101537 59 142 0.0 0.0 0.00 0.00 0.00 56 1012.8
20220815101036 59 140 0.0 0.0 0.00 0.00 0.00 56 1013.0
20220815100535 59 149 0.0 1.0 0.00 0.00 0.00 58 1012.9
20220815100034 59 149 0.0 0.0 0.00 0.00 0.00 58 1013.0
20220815095533 59 149 0.0 0.0 0.00 0.00 0.00 57 1013.3
20220815095031 59 148 0.0 0.0 0.00 0.00 0.00 57 1013.2
20220815094530 60 148 0.0 0.0 0.00 0.00 0.00 55 1013.3
20220815094030 60 143 0.0 1.0 0.00 0.00 0.00 56 1013.2
20220815093528 60 141 0.0 0.0 0.00 0.00 0.00 56 1013.1
20220815093027 60 141 0.0 0.0 0.00 0.00 0.00 55 1013.1
20220815092526 60 155 0.0 0.0 0.00 0.00 0.00 55 1013.4
20220815092026 60 167 1.0 1.0 0.00 0.00 0.00 55 1013.2
20220815091524 60 163 1.0 1.0 0.00 0.00 0.00 55 1013.3
20220815091023 60 152 0.0 0.0 0.00 0.00 0.00 54 1013.2
20220815090522 61 152 1.0 1.0 0.00 0.00 0.00 54 1013.3
20220815090021 61 150 0.0 0.0 0.00 0.00 0.00 53 1013.4
20220815085519 61 150 0.0 0.0 0.00 0.00 0.00 53 1013.1
20220815085018 61 167 1.0 1.0 0.00 0.00 0.00 53 1013.3
20220815084516 61 169 1.0 1.0 0.00 0.00 0.00 52 1013.4
20220815084015 62 156 0.0 1.0 0.00 0.00 0.00 52 1013.4
20220815083514 61 153 0.0 0.0 0.00 0.00 0.00 52 1013.6
20220815083013 61 158 0.0 0.0 0.00 0.00 0.00 52 1013.6
20220815082513 61 159 0.0 0.0 0.00 0.00 0.00 53 1013.6
20220815082012 61 160 1.0 1.0 0.00 0.00 0.00 52 1013.8
20220815081511 62 146 0.0 0.0 0.00 0.00 0.00 51 1013.8
20220815081010 62 146 0.0 0.0 0.00 0.00 0.00 52 1013.7
20220815080509 62 144 0.0 0.0 0.00 0.00 0.00 50 1013.8
20220815080008 62 165 0.0 1.0 0.00 0.00 0.00 51 1013.9
20220815075508 63 158 0.0 1.0 0.00 0.00 0.00 51 1013.7
20220815075007 63 122 0.0 0.0 0.00 0.00 0.00 50 1014.2
20220815074506 63 153 1.0 1.0 0.00 0.00 0.00 51 1014.0
20220815074005 63 157 0.0 1.0 0.00 0.00 0.00 51 1013.9
20220815073505 63 156 1.0 1.0 0.00 0.00 0.00 50 1014.0
20220815073004 63 167 1.0 1.0 0.00 0.00 0.00 50 1013.9
20220815072504 64 161 0.0 0.0 0.00 0.00 0.00 48 1013.9
20220815072003 63 161 0.0 1.0 0.00 0.00 0.00 49 1013.7
20220815071502 64 162 1.0 1.0 0.00 0.00 0.00 49 1013.9
20220815071001 64 163 1.0 1.0 0.00 0.00 0.00 48 1013.7
20220815070500 64 160 1.0 1.0 0.00 0.00 0.00 48 1013.9
20220815070000 64 151 0.0 0.0 0.00 0.00 0.00 47 1013.9
20220815065458 64 160 1.0 1.0 0.00 0.00 0.00 47 1014.0
20220815064957 65 172 1.0 2.0 0.00 0.00 0.00 45 1013.8
20220815064455 65 160 2.0 2.0 0.00 0.00 0.00 45 1013.8
20220815063954 65 165 1.0 1.0 0.00 0.00 0.00 45 1013.8
20220815063452 65 168 1.0 1.0 0.00 0.00 0.00 43 1014.0
20220815062951 65 175 2.0 2.0 0.00 0.00 0.00 41 1014.1
20220815062450 66 168 0.0 0.0 0.00 0.00 0.00 41 1014.0
20220815061949 66 169 0.0 0.0 0.00 0.00 0.00 41 1013.8
20220815061447 66 160 2.0 2.0 0.00 0.00 0.00 40 1013.8
20220815060946 66 166 1.0 1.0 0.00 0.00 0.00 39 1013.8
20220815060445 67 169 1.0 1.0 0.00 0.00 0.00 38 1013.9
20220815055946 67 177 2.0 2.0 0.00 0.00 0.00 37 1013.6
20220815055444 67 156 1.0 1.0 0.00 0.00 0.00 38 1013.8
20220815054943 67 159 1.0 1.0 0.00 0.00 0.00 37 1013.8
20220815054443 68 164 1.0 1.0 0.00 0.00 0.00 36 1013.6
20220815053941 68 175 1.0 1.0 0.00 0.00 0.00 35 1013.7
20220815053440 68 157 1.0 1.0 0.00 0.00 0.00 35 1013.7
20220815052939 69 165 1.0 1.0 0.00 0.00 0.00 34 1013.6
20220815052439 71 185 1.0 1.0 0.00 0.00 0.00 33 1013.7
20220815051938 69 166 1.0 1.0 0.00 0.00 0.00 34 1013.5
20220815051437 69 171 1.0 1.0 0.00 0.00 0.00 34 1013.6
20220815050936 70 151 1.0 1.0 0.00 0.00 0.00 33 1013.6
20220815050434 69 161 1.0 1.0 0.00 0.00 0.00 34 1013.6
20220815045934 69 167 0.0 1.0 0.00 0.00 0.00 33 1013.6
20220815045433 69 173 1.0 1.0 0.00 0.00 0.00 33 1013.6
20220815044931 70 161 1.0 1.0 0.00 0.00 0.00 33 1013.5
20220815044429 70 160 1.0 1.0 0.00 0.00 0.00 32 1013.7
20220815043929 71 169 1.0 1.0 0.00 0.00 0.00 32 1013.5
20220815043428 71 166 1.0 1.0 0.00 0.00 0.00 31 1013.5
20220815042926 71 156 1.0 1.0 0.00 0.00 0.00 32 1013.6
20220815042425 71 151 0.0 0.0 0.00 0.00 0.00 31 1013.6
20220815041923 72 158 1.0 1.0 0.00 0.00 0.00 31 1013.4
20220815041423 72 168 1.0 1.0 0.00 0.00 0.00 30 1013.3
20220815040922 73 165 1.0 1.0 0.00 0.00 0.00 30 1013.6
20220815040421 73 180 1.0 1.0 0.00 0.00 0.00 30 1013.3
20220815035920 74 166 0.0 1.0 0.00 0.00 0.00 29 1013.6
20220815035419 74 154 1.0 1.0 0.00 0.00 0.00 29 1013.4
20220815034918 75 175 1.0 1.0 0.00 0.00 0.00 29 1013.3
20220815034418 75 165 1.0 1.0 0.00 0.00 0.00 28 1013.1
20220815033917 77 173 1.0 1.0 0.00 0.00 0.00 27 1013.4
20220815033416 78 152 1.0 1.0 0.00 0.00 0.00 26 1013.2
20220815032915 80 163 0.0 0.0 0.00 0.00 0.00 26 1013.4
20220815032413 80 163 0.0 1.0 0.00 0.00 0.00 25 1013.1
20220815031912 81 155 0.0 0.0 0.00 0.00 0.00 24 1013.1
20220815031411 82 152 0.0 0.0 0.00 0.00 0.00 24 1012.9
20220815030909 83 158 0.0 0.0 0.00 0.00 0.00 23 1013.1
20220815030409 83 141 0.0 0.0 0.00 0.00 0.00 23 1013.0
20220815025909 83 141 0.0 0.0 0.00 0.00 0.00 22 1013.2
20220815025408 82 136 0.0 1.0 0.00 0.00 0.00 22 1013.1
20220815024908 83 174 1.0 1.0 0.00 0.00 0.00 22 1012.9
20220815024409 84 163 1.0 1.0 0.00 0.00 0.00 21 1013.0
20220815023907 85 143 1.0 1.0 0.00 0.00 0.00 21 1013.0
20220815023407 86 162 0.0 1.0 0.00 0.00 0.00 20 1013.0
20220815022906 86 145 2.0 2.0 0.00 0.00 0.00 20 1013.0
20220815022405 88 167 1.0 1.0 0.00 0.00 0.00 19 1013.1
20220815021904 90 151 0.0 1.0 0.00 0.00 0.00 18 1012.9
20220815021404 91 161 0.0 0.0 0.00 0.00 0.00 17 1012.9
20220815020902 92 180 1.0 1.0 0.00 0.00 0.00 17 1012.9
20220815020402 93 119 0.0 0.0 0.00 0.00 0.00 16 1013.0
20220815015900 93 166 0.0 1.0 0.00 0.00 0.00 16 1012.8
20220815015400 93 311 1.0 1.0 0.00 0.00 0.00 15 1013.0
20220815014859 93 283 3.0 3.0 0.00 0.00 0.00 16 1013.0
20220815014358 94 344 3.0 6.0 0.00 0.00 0.00 15 1012.9
20220815013858 94 25 3.0 3.0 0.00 0.00 0.00 15 1012.8
20220815013357 95 358 3.0 5.0 0.00 0.00 0.00 14 1013.0
20220815012857 95 65 2.0 2.0 0.00 0.00 0.00 14 1013.0
20220815012356 95 114 2.0 2.0 0.00 0.00 0.00 14 1013.1
20220815011855 95 277 2.0 3.0 0.00 0.00 0.00 13 1013.0
20220815011354 96 320 2.0 5.0 0.00 0.00 0.00 14 1013.1
20220815010854 96 111 1.0 2.0 0.00 0.00 0.00 14 1013.1